EDLW

Dortmund Airport

Dortmund, Germany
METAR EDLW 201050Z 36003KT 330V030 CAVOK M01/M05 Q1017 ATIS N
Observed Flight Rules
Jan-20 @ 10:50 UTC (12 minutes ago) Visual Flight Rules
Wind Visibility Clouds
360° at 3 knots 10,000+ meters
  • Clear skies
Temperatures Readings
Current -1°C / 30°F
Dewpoint -5°C / 23°F
Humidity 75%
Altimeter 30.03" Hg
Pressure 1016.92 hPa
Elevation 127
METAR EDLW 201050Z 36003KT 330V030 CAVOK M01/M05 Q1017 ATIS N
Observed Flight Rules
Jan-20 @ 10:50 UTC
(12 minutes ago)
VFR
Wind Visibility
360° at 3 knots 10,000+ meters
Clouds
  • Clear skies
Temperature Dewpoint
-1°C / 30°F -5°C / 23°F
Humidity Altimeter Pressure
75% 30.03" Hg 1016.92 hPa